Time;durP1;ratioP1;P1;durP2;ratioP2;P2;SDS_P1;SDS_P2;PMS_P1;PMS_P2;Temp;Humidity;BMP_temperature;BMP_pressure;BME280_temperature;BME280_humidity;BME280_pressure;Samples;Min_cycle;Max_cycle;Signal;HPM_P1;HPM_P2
2023/09/14 00:02:00;;;;;;;6.17;1.90;;;;;;;;;;5022852;28;20647;-45
2023/09/14 00:04:25;;;;;;;5.33;0.97;;;;;;;;;;5017624;28;20065;-45
2023/09/14 00:06:50;;;;;;;4.53;1.33;;;;;;;;;;5023877;28;20037;-46
2023/09/14 00:09:15;;;;;;;4.22;1.55;;;;;;;;;;5018557;28;20467;-46
2023/09/14 00:11:41;;;;;;;16.58;2.60;;;;;;;;;;5020647;28;20112;-45
2023/09/14 00:14:06;;;;;;;4.90;1.77;;;;;;;;;;5027672;28;20511;-46
2023/09/14 00:16:31;;;;;;;4.77;1.90;;;;;;;;;;5014254;28;20147;-45
2023/09/14 00:18:56;;;;;;;4.03;1.50;;;;;;;;;;5021656;28;20281;-46
2023/09/14 00:21:22;;;;;;;11.73;2.28;;;;;;;;;;5014870;28;20277;-46
2023/09/14 00:23:47;;;;;;;6.93;1.60;;;;;;;;;;5021142;28;20096;-45
2023/09/14 00:26:14;;;;;;;5.43;2.77;;;;;;;;;;5023557;28;20324;-46
2023/09/14 00:28:39;;;;;;;3.60;1.42;;;;;;;;;;5024113;28;20029;-46
2023/09/14 00:31:04;;;;;;;3.70;1.40;;;;;;;;;;5014003;28;20026;-46
2023/09/14 00:33:30;;;;;;;5.77;1.50;;;;;;;;;;5018204;28;20685;-45
2023/09/14 00:35:55;;;;;;;8.77;1.90;;;;;;;;;;5026456;28;20108;-45
2023/09/14 00:38:22;;;;;;;4.60;1.57;;;;;;;;;;5020371;28;20083;-45
2023/09/14 00:40:48;;;;;;;6.72;1.70;;;;;;;;;;5016842;28;20283;-45
2023/09/14 00:43:13;;;;;;;4.63;1.60;;;;;;;;;;5022324;28;20048;-46
2023/09/14 00:45:39;;;;;;;6.75;1.48;;;;;;;;;;5012338;28;20021;-45
2023/09/14 00:48:05;;;;;;;4.63;1.23;;;;;;;;;;5016298;28;20037;-46
2023/09/14 00:50:31;;;;;;;5.07;2.00;;;;;;;;;;5016229;28;20047;-45
2023/09/14 00:52:56;;;;;;;5.05;1.55;;;;;;;;;;5020207;28;20034;-46
2023/09/14 00:55:23;;;;;;;3.87;0.80;;;;;;;;;;5024736;28;20101;-45
2023/09/14 00:57:49;;;;;;;4.53;1.58;;;;;;;;;;5026617;28;20017;-46
2023/09/14 01:00:16;;;;;;;7.70;1.73;;;;;;;;;;5025579;28;20432;-46
2023/09/14 01:02:41;;;;;;;4.13;1.85;;;;;;;;;;5026146;28;21232;-46
2023/09/14 01:05:07;;;;;;;7.93;1.60;;;;;;;;;;5014147;28;20113;-46
2023/09/14 01:07:32;;;;;;;3.40;1.38;;;;;;;;;;5022203;28;20056;-45
2023/09/14 01:09:58;;;;;;;4.78;1.80;;;;;;;;;;5023249;28;20510;-45
2023/09/14 01:12:23;;;;;;;4.35;1.85;;;;;;;;;;5021742;28;20032;-45
2023/09/14 01:15:09;;;;;;;4.28;1.65;;;;;;;;;;5023783;28;20032;-46
2023/09/14 01:17:39;;;;;;;4.05;1.63;;;;;;;;;;5026465;28;20026;-46
2023/09/14 01:20:14;;;;;;;5.63;1.63;;;;;;;;;;5026151;28;20064;-45
2023/09/14 01:22:48;;;;;;;5.38;1.50;;;;;;;;;;5015177;28;20032;-45
2023/09/14 01:25:23;;;;;;;7.13;1.85;;;;;;;;;;5014954;28;20541;-45
2023/09/14 01:27:49;;;;;;;2.15;1.02;;;;;;;;;;5018447;28;20021;-46
2023/09/14 03:32:10;;;;;;;6.38;1.80;;;;;;;;;;5029252;28;20036;-46
2023/09/14 03:34:36;;;;;;;3.70;1.60;;;;;;;;;;5023369;28;20033;-45
2023/09/14 03:37:01;;;;;;;6.43;1.50;;;;;;;;;;5016843;28;20281;-45
2023/09/14 03:39:26;;;;;;;5.10;1.42;;;;;;;;;;5021200;28;20749;-46
2023/09/14 03:41:51;;;;;;;4.77;1.27;;;;;;;;;;5019816;28;20044;-46
2023/09/14 03:44:17;;;;;;;8.83;1.80;;;;;;;;;;5022178;28;20284;-45
2023/09/14 03:46:42;;;;;;;3.90;1.55;;;;;;;;;;5027137;28;20036;-45
2023/09/14 03:49:07;;;;;;;4.82;1.52;;;;;;;;;;5016858;28;20030;-46
2023/09/14 03:51:33;;;;;;;4.40;1.57;;;;;;;;;;5022468;28;20049;-45
2023/09/14 03:53:58;;;;;;;4.28;1.92;;;;;;;;;;5030361;28;20055;-46
2023/09/14 03:56:24;;;;;;;3.37;1.33;;;;;;;;;;5022841;28;20080;-46
2023/09/14 03:58:49;;;;;;;6.93;2.10;;;;;;;;;;5026744;28;20022;-45
2023/09/14 04:01:15;;;;;;;10.07;1.80;;;;;;;;;;5022748;28;20025;-45
2023/09/14 04:03:40;;;;;;;9.05;4.47;;;;;;;;;;5025128;28;20083;-46
2023/09/14 04:06:05;;;;;;;5.73;1.77;;;;;;;;;;5017249;28;20100;-46
2023/09/14 04:08:30;;;;;;;2.67;1.10;;;;;;;;;;5018653;28;20021;-46
2023/09/14 04:10:56;;;;;;;4.50;2.00;;;;;;;;;;5016779;28;20079;-46
2023/09/14 04:13:34;;;;;;;3.87;1.40;;;;;;;;;;5014134;28;20044;-45
2023/09/14 04:16:01;;;;;;;6.40;1.40;;;;;;;;;;5016924;28;20695;-45
2023/09/14 04:18:27;;;;;;;3.47;1.30;;;;;;;;;;5028326;28;20028;-45
2023/09/14 04:20:52;;;;;;;6.65;1.27;;;;;;;;;;5018513;28;20033;-45
2023/09/14 04:23:18;;;;;;;4.80;1.35;;;;;;;;;;5017594;28;20079;-46
2023/09/14 04:25:46;;;;;;;7.22;1.48;;;;;;;;;;5019596;28;20086;-45
2023/09/14 04:28:16;;;;;;;5.63;1.35;;;;;;;;;;5021657;28;20033;-45
2023/09/14 04:34:12;;;;;;;2.75;1.20;;;;;;;;;;5026692;28;20075;-45
2023/09/14 05:07:06;;;;;;;4.13;1.23;;;;;;;;;;5026254;28;20079;-45
2023/09/14 05:09:31;;;;;;;6.53;1.43;;;;;;;;;;5018418;28;20108;-45
2023/09/14 05:11:56;;;;;;;3.92;1.20;;;;;;;;;;5023637;28;20290;-45
2023/09/14 05:14:22;;;;;;;3.27;1.27;;;;;;;;;;5020143;28;20071;-45
2023/09/14 05:16:47;;;;;;;9.85;1.30;;;;;;;;;;5013961;28;20279;-46
2023/09/14 05:19:12;;;;;;;3.10;1.08;;;;;;;;;;5018538;28;20033;-46
2023/09/14 05:21:38;;;;;;;7.17;1.33;;;;;;;;;;5018731;28;20041;-46
2023/09/14 05:24:03;;;;;;;3.63;1.30;;;;;;;;;;5022666;28;20409;-46
2023/09/14 05:26:28;;;;;;;5.68;1.20;;;;;;;;;;5014776;28;20071;-45
2023/09/14 05:28:54;;;;;;;4.93;2.15;;;;;;;;;;5016112;28;20024;-46
2023/09/14 05:31:19;;;;;;;4.55;1.00;;;;;;;;;;5015503;28;20369;-45
2023/09/14 05:33:44;;;;;;;3.00;1.43;;;;;;;;;;5018347;28;20408;-45
2023/09/14 05:36:10;;;;;;;4.43;1.30;;;;;;;;;;5016165;28;20285;-46
2023/09/14 05:51:54;;;;;;;;;;;;;;;;;;5155653;27;20116;-47
2023/09/14 05:54:20;;;;;;;3.90;1.38;;;;;;;;;;5086902;27;1345840;-46
2023/09/14 05:56:45;;;;;;;5.15;1.60;;;;;;;;;;5113612;27;20036;-47
2023/09/14 05:59:10;;;;;;;3.57;1.10;;;;;;;;;;5100176;28;20030;-46
2023/09/14 06:01:36;;;;;;;2.43;1.07;;;;;;;;;;5100735;28;20366;-47
2023/09/14 06:04:01;;;;;;;3.72;1.30;;;;;;;;;;5095672;28;20296;-46
2023/09/14 06:06:27;;;;;;;6.78;1.67;;;;;;;;;;5094193;28;20377;-47
2023/09/14 06:08:52;;;;;;;3.50;1.40;;;;;;;;;;5100189;28;20099;-46
2023/09/14 06:11:17;;;;;;;3.00;1.10;;;;;;;;;;5106479;28;20029;-46
2023/09/14 06:13:42;;;;;;;3.43;1.27;;;;;;;;;;5102987;28;20294;-46
2023/09/14 06:16:08;;;;;;;4.20;1.03;;;;;;;;;;5104783;28;20274;-46
2023/09/14 06:18:33;;;;;;;5.20;1.03;;;;;;;;;;5097287;28;20313;-47
2023/09/14 06:20:58;;;;;;;2.80;1.20;;;;;;;;;;5100441;28;20683;-46
2023/09/14 06:23:23;;;;;;;4.80;1.52;;;;;;;;;;5098808;28;20369;-46
2023/09/14 06:25:52;;;;;;;4.33;1.93;;;;;;;;;;5102710;28;20119;-47
2023/09/14 06:28:18;;;;;;;3.63;1.10;;;;;;;;;;5100853;28;20052;-46
2023/09/14 06:30:43;;;;;;;2.63;1.02;;;;;;;;;;5093715;28;20700;-46
2023/09/14 06:33:08;;;;;;;2.45;1.00;;;;;;;;;;5097938;28;20024;-46
2023/09/14 06:35:33;;;;;;;4.67;1.20;;;;;;;;;;5097470;28;20032;-46
2023/09/14 06:37:59;;;;;;;5.97;1.75;;;;;;;;;;5088575;28;20058;-46
2023/09/14 06:40:24;;;;;;;3.37;0.93;;;;;;;;;;5098481;28;20028;-46
2023/09/14 06:42:50;;;;;;;4.85;1.58;;;;;;;;;;5101402;28;20325;-46
2023/09/14 06:45:15;;;;;;;5.57;1.83;;;;;;;;;;5099019;28;20414;-46
2023/09/14 06:47:40;;;;;;;3.60;0.95;;;;;;;;;;5099551;28;20035;-46
2023/09/14 06:50:06;;;;;;;4.53;1.10;;;;;;;;;;5101801;28;20024;-46
2023/09/14 06:52:32;;;;;;;3.58;1.40;;;;;;;;;;5097118;28;20270;-46
2023/09/14 06:54:57;;;;;;;7.07;1.25;;;;;;;;;;5099776;28;20105;-46
2023/09/14 06:57:23;;;;;;;3.92;1.20;;;;;;;;;;5102469;28;20028;-46
2023/09/14 06:59:49;;;;;;;2.30;1.20;;;;;;;;;;5092367;28;20077;-46
2023/09/14 07:02:14;;;;;;;6.22;1.15;;;;;;;;;;5087287;28;20366;-46
2023/09/14 07:04:39;;;;;;;4.63;1.80;;;;;;;;;;5091162;28;20445;-46
2023/09/14 07:07:04;;;;;;;2.17;0.90;;;;;;;;;;5082449;28;20284;-46
2023/09/14 07:09:30;;;;;;;3.03;0.93;;;;;;;;;;5087550;28;20791;-46
2023/09/14 07:11:56;;;;;;;5.80;1.20;;;;;;;;;;5086043;28;20024;-46
2023/09/14 07:14:21;;;;;;;5.17;1.13;;;;;;;;;;5088739;28;20107;-46
2023/09/14 07:16:46;;;;;;;3.88;0.98;;;;;;;;;;5084456;28;20763;-46
2023/09/14 07:19:13;;;;;;;4.72;1.17;;;;;;;;;;5080389;28;20024;-46
2023/09/14 07:21:38;;;;;;;9.35;2.10;;;;;;;;;;5090161;28;20043;-46
2023/09/14 07:24:05;;;;;;;5.22;1.25;;;;;;;;;;5087170;28;20067;-46
2023/09/14 07:26:30;;;;;;;1.88;1.00;;;;;;;;;;5088862;28;20043;-46
2023/09/14 07:28:56;;;;;;;2.63;1.38;;;;;;;;;;5084452;28;20421;-46
2023/09/14 07:31:21;;;;;;;5.63;1.13;;;;;;;;;;5087047;28;20020;-46
2023/09/14 07:33:46;;;;;;;6.47;1.30;;;;;;;;;;5084972;28;20266;-46
2023/09/14 07:36:11;;;;;;;2.50;0.97;;;;;;;;;;5089045;28;20616;-47
2023/09/14 07:38:37;;;;;;;2.30;0.90;;;;;;;;;;5079593;28;20135;-46
2023/09/14 07:41:03;;;;;;;5.68;1.15;;;;;;;;;;5085218;28;20028;-46
2023/09/14 07:43:28;;;;;;;5.10;1.10;;;;;;;;;;5086234;28;20024;-46
2023/09/14 07:45:54;;;;;;;4.68;1.00;;;;;;;;;;5086539;28;20355;-46
2023/09/14 07:48:20;;;;;;;3.85;1.13;;;;;;;;;;5087443;28;20024;-46
2023/09/14 07:50:45;;;;;;;5.13;1.20;;;;;;;;;;5084016;28;20039;-46
2023/09/14 07:53:10;;;;;;;3.00;1.40;;;;;;;;;;5085155;28;20749;-46
2023/09/14 07:55:36;;;;;;;2.20;0.90;;;;;;;;;;5089291;28;20114;-46
2023/09/14 07:58:01;;;;;;;5.38;1.35;;;;;;;;;;5085269;28;20047;-46
2023/09/14 08:00:27;;;;;;;3.20;1.38;;;;;;;;;;5089101;28;20036;-46
2023/09/14 08:02:52;;;;;;;4.53;1.13;;;;;;;;;;5087855;28;20024;-46
2023/09/14 08:05:18;;;;;;;9.27;1.15;;;;;;;;;;5087935;28;20481;-46
2023/09/14 08:07:43;;;;;;;3.22;0.70;;;;;;;;;;5083120;28;20135;-46
2023/09/14 08:10:09;;;;;;;2.67;1.13;;;;;;;;;;5086705;28;20031;-46
2023/09/14 08:12:36;;;;;;;3.42;0.90;;;;;;;;;;5085290;28;20323;-46
2023/09/14 08:15:02;;;;;;;6.47;0.98;;;;;;;;;;5088678;28;20076;-46
2023/09/14 08:17:27;;;;;;;3.22;0.75;;;;;;;;;;5087713;28;20647;-46
2023/09/14 08:19:52;;;;;;;4.90;1.33;;;;;;;;;;5085407;28;20031;-46
2023/09/14 08:22:22;;;;;;;2.90;1.00;;;;;;;;;;5090041;28;20024;-46
2023/09/14 08:24:47;;;;;;;6.25;1.20;;;;;;;;;;5086598;28;20324;-46
2023/09/14 08:27:13;;;;;;;4.57;1.17;;;;;;;;;;5081966;28;20068;-46
2023/09/14 08:29:38;;;;;;;3.63;1.00;;;;;;;;;;5089351;28;20265;-46
2023/09/14 08:32:03;;;;;;;3.60;1.03;;;;;;;;;;5084730;28;20020;-46
2023/09/14 08:34:28;;;;;;;4.93;1.42;;;;;;;;;;5088510;28;20270;-46
2023/09/14 08:36:54;;;;;;;2.13;0.63;;;;;;;;;;5088119;28;20028;-47
2023/09/14 08:39:19;;;;;;;4.80;1.33;;;;;;;;;;5089760;28;20558;-46
2023/09/14 08:41:44;;;;;;;3.72;0.93;;;;;;;;;;5086051;28;20277;-47
2023/09/14 08:44:10;;;;;;;4.23;1.40;;;;;;;;;;5082094;28;20389;-47
2023/09/14 08:46:36;;;;;;;4.78;0.90;;;;;;;;;;5084654;28;20066;-46
2023/09/14 08:49:02;;;;;;;8.43;1.17;;;;;;;;;;5084831;28;20039;-46
2023/09/14 08:51:32;;;;;;;3.92;1.15;;;;;;;;;;5087437;28;20043;-46
2023/09/14 08:53:58;;;;;;;3.92;1.20;;;;;;;;;;5085835;28;20546;-46
2023/09/14 08:56:24;;;;;;;6.68;1.27;;;;;;;;;;5080584;28;20016;-46
2023/09/14 08:58:50;;;;;;;5.57;1.08;;;;;;;;;;5086800;28;20060;-47
2023/09/14 09:01:18;;;;;;;7.63;1.27;;;;;;;;;;5080314;28;20039;-46
2023/09/14 09:03:43;;;;;;;3.15;0.85;;;;;;;;;;5086553;28;20560;-46
2023/09/14 09:06:10;;;;;;;4.70;0.98;;;;;;;;;;5083976;28;20040;-46
2023/09/14 09:08:36;;;;;;;7.32;1.00;;;;;;;;;;5088746;28;20048;-46
2023/09/14 09:11:02;;;;;;;4.32;2.00;;;;;;;;;;5086965;28;20470;-46
2023/09/14 09:13:34;;;;;;;0.98;0.50;;;;;;;;;;5090059;28;20016;-46
2023/09/14 09:16:00;;;;;;;4.05;1.15;;;;;;;;;;5085772;28;20020;-46
2023/09/14 09:18:25;;;;;;;2.08;1.13;;;;;;;;;;5084769;28;20382;-46
2023/09/14 09:20:50;;;;;;;3.58;0.80;;;;;;;;;;5080192;28;20035;-46
2023/09/14 09:23:19;;;;;;;2.00;0.93;;;;;;;;;;5084401;28;20024;-46
2023/09/14 09:25:48;;;;;;;4.97;0.88;;;;;;;;;;5087871;28;20268;-46
2023/09/14 09:28:13;;;;;;;2.15;0.85;;;;;;;;;;5087019;28;20138;-46
2023/09/14 09:30:39;;;;;;;4.45;0.98;;;;;;;;;;5083798;28;20342;-46
2023/09/14 09:33:04;;;;;;;5.85;1.10;;;;;;;;;;5085213;28;20107;-46
2023/09/14 09:35:30;;;;;;;2.53;0.80;;;;;;;;;;5084942;28;20363;-46
2023/09/14 09:37:59;;;;;;;3.00;1.45;;;;;;;;;;5082499;28;21013;-46
2023/09/14 09:40:25;;;;;;;3.97;1.00;;;;;;;;;;5084682;28;20534;-46
2023/09/14 09:42:52;;;;;;;5.90;0.90;;;;;;;;;;5083026;28;20028;-46
2023/09/14 09:45:20;;;;;;;2.80;0.77;;;;;;;;;;5083460;28;20117;-46
2023/09/14 09:47:46;;;;;;;3.30;0.77;;;;;;;;;;5082731;28;20030;-46
2023/09/14 09:50:12;;;;;;;3.70;0.93;;;;;;;;;;5084121;28;20036;-46
2023/09/14 09:52:38;;;;;;;2.60;1.20;;;;;;;;;;5085052;28;20422;-46
2023/09/14 09:55:04;;;;;;;6.75;1.02;;;;;;;;;;5083235;28;20036;-46
2023/09/14 09:57:31;;;;;;;3.53;0.95;;;;;;;;;;5085806;28;20500;-46
2023/09/14 09:59:57;;;;;;;7.63;3.10;;;;;;;;;;5083180;28;20042;-46
2023/09/14 10:02:29;;;;;;;2.60;0.98;;;;;;;;;;5079302;28;20041;-46
2023/09/14 10:04:55;;;;;;;6.30;1.20;;;;;;;;;;5082008;28;20493;-46
2023/09/14 10:07:21;;;;;;;5.93;1.37;;;;;;;;;;5084043;28;20039;-46
2023/09/14 10:09:46;;;;;;;4.07;0.90;;;;;;;;;;5086871;28;20311;-46
2023/09/14 10:12:11;;;;;;;3.30;1.17;;;;;;;;;;5079841;28;20040;-46
2023/09/14 10:14:38;;;;;;;6.45;1.42;;;;;;;;;;5081636;28;20358;-46
2023/09/14 10:17:06;;;;;;;4.35;1.02;;;;;;;;;;5080332;28;20043;-46
2023/09/14 10:19:31;;;;;;;6.40;1.27;;;;;;;;;;5079210;28;20746;-46
2023/09/14 10:21:57;;;;;;;1.80;0.75;;;;;;;;;;5086545;28;20032;-46
2023/09/14 10:24:22;;;;;;;3.35;1.05;;;;;;;;;;5082475;28;20081;-46
2023/09/14 10:26:49;;;;;;;1.63;0.88;;;;;;;;;;5084816;28;20032;-47
2023/09/14 10:29:14;;;;;;;9.18;3.70;;;;;;;;;;5080618;28;20375;-46
2023/09/14 10:31:42;;;;;;;3.38;1.23;;;;;;;;;;5082733;28;20058;-46
2023/09/14 10:34:08;;;;;;;6.72;1.23;;;;;;;;;;5082758;28;20056;-46
2023/09/14 10:36:34;;;;;;;2.53;1.05;;;;;;;;;;5089090;28;20466;-47
2023/09/14 11:00:48;;;;;;;7.25;1.25;;;;;;;;;;5085645;28;20059;-47
2023/09/14 11:03:14;;;;;;;4.28;1.90;;;;;;;;;;5081925;28;20020;-46
2023/09/14 11:05:41;;;;;;;3.83;1.15;;;;;;;;;;5087361;28;20451;-46
2023/09/14 11:08:06;;;;;;;4.85;1.20;;;;;;;;;;5083623;28;20028;-46
2023/09/14 11:10:34;;;;;;;5.93;1.33;;;;;;;;;;5089658;28;20066;-46
2023/09/14 11:13:18;;;;;;;4.30;1.58;;;;;;;;;;5091960;28;20015;-46
2023/09/14 11:15:44;;;;;;;6.65;1.55;;;;;;;;;;5087763;28;20012;-46
2023/09/14 11:18:09;;;;;;;4.07;1.17;;;;;;;;;;5086590;28;20024;-46
2023/09/14 11:20:38;;;;;;;8.13;1.17;;;;;;;;;;5086551;28;20067;-46
2023/09/14 11:23:03;;;;;;;2.83;1.40;;;;;;;;;;5088180;28;20080;-47
2023/09/14 11:25:29;;;;;;;5.13;2.72;;;;;;;;;;5084451;28;20036;-47
2023/09/14 11:27:55;;;;;;;6.55;1.38;;;;;;;;;;5085176;28;20112;-46
2023/09/14 11:30:21;;;;;;;4.32;1.38;;;;;;;;;;5086544;28;20099;-47
2023/09/14 11:32:47;;;;;;;3.85;1.05;;;;;;;;;;5088022;28;20115;-46
2023/09/14 11:35:13;;;;;;;4.35;1.33;;;;;;;;;;5089212;28;20466;-47
2023/09/14 11:37:41;;;;;;;3.80;1.33;;;;;;;;;;5087315;28;20035;-47
2023/09/14 11:40:16;;;;;;;4.22;1.38;;;;;;;;;;5087995;28;20035;-46
2023/09/14 11:43:00;;;;;;;4.70;1.17;;;;;;;;;;5080376;28;20062;-46
2023/09/14 11:45:25;;;;;;;3.03;1.17;;;;;;;;;;5085285;28;20087;-47
2023/09/14 11:47:51;;;;;;;4.15;1.83;;;;;;;;;;5085640;28;20044;-47
2023/09/14 11:50:20;;;;;;;4.93;1.30;;;;;;;;;;5087972;28;20028;-46
2023/09/14 11:52:45;;;;;;;3.63;1.27;;;;;;;;;;5082425;28;20436;-46
2023/09/14 11:55:14;;;;;;;4.05;1.23;;;;;;;;;;5088954;28;20050;-46
2023/09/14 11:57:39;;;;;;;6.82;1.45;;;;;;;;;;5084038;28;20029;-46
2023/09/14 12:00:05;;;;;;;6.40;1.30;;;;;;;;;;5081772;28;20443;-46
2023/09/14 12:02:31;;;;;;;2.17;0.80;;;;;;;;;;5087028;28;20277;-46
2023/09/14 12:04:57;;;;;;;5.40;1.30;;;;;;;;;;5088460;28;20020;-46
2023/09/14 12:07:22;;;;;;;7.80;2.25;;;;;;;;;;5085609;28;20078;-46
2023/09/14 12:09:47;;;;;;;6.75;2.25;;;;;;;;;;5085829;28;20039;-46
2023/09/14 12:12:25;;;;;;;5.53;1.47;;;;;;;;;;5085093;28;20104;-47
2023/09/14 12:14:51;;;;;;;4.13;1.55;;;;;;;;;;5085550;28;20098;-46
2023/09/14 12:17:20;;;;;;;2.63;1.20;;;;;;;;;;5082522;28;20033;-46
2023/09/14 12:19:46;;;;;;;5.05;1.40;;;;;;;;;;5087020;28;20047;-47
2023/09/14 12:22:11;;;;;;;2.85;0.90;;;;;;;;;;5084462;28;20032;-46
2023/09/14 12:24:36;;;;;;;3.47;1.15;;;;;;;;;;5087044;28;20530;-46
2023/09/14 12:27:02;;;;;;;3.03;1.35;;;;;;;;;;5085864;28;20454;-47
2023/09/14 12:29:27;;;;;;;5.75;1.50;;;;;;;;;;5088863;28;20481;-46
2023/09/14 12:31:53;;;;;;;3.47;1.10;;;;;;;;;;5089042;28;20028;-46
2023/09/14 12:34:18;;;;;;;3.35;1.27;;;;;;;;;;5088701;28;20024;-46
2023/09/14 12:36:44;;;;;;;3.17;1.50;;;;;;;;;;5086267;28;20125;-46
2023/09/14 12:39:13;;;;;;;8.52;1.42;;;;;;;;;;5088505;28;20038;-46
2023/09/14 12:41:39;;;;;;;3.00;1.05;;;;;;;;;;5088821;28;20108;-46
2023/09/14 12:44:04;;;;;;;2.35;0.98;;;;;;;;;;5086948;28;20491;-47
2023/09/14 12:46:31;;;;;;;3.97;1.77;;;;;;;;;;5084355;28;20042;-46
2023/09/14 12:48:59;;;;;;;4.10;1.08;;;;;;;;;;5085590;28;20109;-46
2023/09/14 12:51:24;;;;;;;2.78;1.30;;;;;;;;;;5083525;28;20020;-46
2023/09/14 12:53:50;;;;;;;10.88;5.18;;;;;;;;;;5083436;28;20397;-46
2023/09/14 12:56:15;;;;;;;6.18;1.33;;;;;;;;;;5084915;28;20373;-47
2023/09/14 12:58:41;;;;;;;2.53;1.20;;;;;;;;;;5087736;28;20194;-47
2023/09/14 13:01:09;;;;;;;3.03;1.10;;;;;;;;;;5086181;28;20284;-46
2023/09/14 13:03:35;;;;;;;5.95;2.13;;;;;;;;;;5087612;28;20024;-47
2023/09/14 13:06:02;;;;;;;3.85;1.10;;;;;;;;;;5088461;28;20047;-46
2023/09/14 13:08:28;;;;;;;4.00;1.23;;;;;;;;;;5087643;28;20020;-46
2023/09/14 13:10:53;;;;;;;3.30;1.37;;;;;;;;;;5092152;28;20028;-46
2023/09/14 13:13:21;;;;;;;3.73;1.20;;;;;;;;;;5080973;28;20032;-46
2023/09/14 13:15:46;;;;;;;2.50;1.00;;;;;;;;;;5086740;28;20258;-46
2023/09/14 13:18:13;;;;;;;9.27;2.00;;;;;;;;;;5083834;28;20023;-46
2023/09/14 13:20:45;;;;;;;4.20;1.70;;;;;;;;;;5087801;28;20024;-46
2023/09/14 13:23:11;;;;;;;2.30;1.00;;;;;;;;;;5081610;28;20561;-47
2023/09/14 13:25:38;;;;;;;3.50;1.25;;;;;;;;;;5086903;28;20020;-47
2023/09/14 13:28:03;;;;;;;2.97;1.10;;;;;;;;;;5079780;28;21363;-46
2023/09/14 13:30:29;;;;;;;3.95;1.08;;;;;;;;;;5086938;28;20031;-46
2023/09/14 13:32:58;;;;;;;2.92;1.48;;;;;;;;;;5086475;28;20029;-46
2023/09/14 13:35:24;;;;;;;5.63;1.08;;;;;;;;;;5084293;28;20043;-46
2023/09/14 13:37:51;;;;;;;2.33;1.15;;;;;;;;;;5089478;28;20408;-46
2023/09/14 13:42:42;;;;;;;4.00;1.20;;;;;;;;;;5080071;28;20049;-46
2023/09/14 13:45:08;;;;;;;4.10;1.30;;;;;;;;;;5080598;28;20405;-46
2023/09/14 13:47:34;;;;;;;4.63;1.33;;;;;;;;;;5082244;28;20046;-46
2023/09/14 13:49:59;;;;;;;3.00;1.30;;;;;;;;;;5081851;28;20362;-47
2023/09/14 13:52:24;;;;;;;3.77;1.50;;;;;;;;;;5084963;28;20016;-46
2023/09/14 13:54:49;;;;;;;2.33;0.80;;;;;;;;;;5084282;28;20278;-46
2023/09/14 13:57:15;;;;;;;6.57;2.27;;;;;;;;;;5087774;28;20043;-46
2023/09/14 13:59:40;;;;;;;6.55;1.70;;;;;;;;;;5087875;28;20085;-46
2023/09/14 14:02:05;;;;;;;3.37;1.00;;;;;;;;;;5077758;28;20077;-47
2023/09/14 14:04:31;;;;;;;1.73;0.83;;;;;;;;;;5086516;28;20254;-46
2023/09/14 14:06:57;;;;;;;3.17;1.50;;;;;;;;;;5086209;28;20070;-46
2023/09/14 14:09:22;;;;;;;4.03;1.42;;;;;;;;;;5085896;28;20016;-47
2023/09/14 14:11:48;;;;;;;2.23;0.93;;;;;;;;;;5085334;28;20153;-46
2023/09/14 14:14:13;;;;;;;4.87;1.37;;;;;;;;;;5079090;28;20024;-46
2023/09/14 14:16:40;;;;;;;4.00;1.27;;;;;;;;;;5082181;28;20277;-46
2023/09/14 14:19:06;;;;;;;7.47;1.60;;;;;;;;;;5085397;28;20035;-46
2023/09/14 14:21:31;;;;;;;3.20;1.43;;;;;;;;;;5083891;28;20020;-46
2023/09/14 14:23:56;;;;;;;2.80;1.30;;;;;;;;;;5090282;28;20089;-46
2023/09/14 14:26:22;;;;;;;3.70;1.50;;;;;;;;;;5087399;28;20433;-46
2023/09/14 14:28:47;;;;;;;2.78;1.10;;;;;;;;;;5088116;28;20031;-46
2023/09/14 14:31:13;;;;;;;2.93;1.10;;;;;;;;;;5086638;28;20039;-46
2023/09/14 14:33:38;;;;;;;4.10;1.57;;;;;;;;;;5084269;28;20039;-47
2023/09/14 14:36:03;;;;;;;4.67;1.33;;;;;;;;;;5090796;28;20249;-47
2023/09/14 14:38:28;;;;;;;2.40;1.00;;;;;;;;;;5090827;28;20028;-46
2023/09/14 14:40:54;;;;;;;3.97;1.13;;;;;;;;;;5088894;28;20048;-47
2023/09/14 14:43:19;;;;;;;4.38;1.40;;;;;;;;;;5090773;28;20568;-46
2023/09/14 14:45:44;;;;;;;3.60;1.23;;;;;;;;;;5091629;28;20513;-46
2023/09/14 14:48:10;;;;;;;3.97;1.67;;;;;;;;;;5088048;28;20024;-47
2023/09/14 14:50:35;;;;;;;5.63;1.57;;;;;;;;;;5091751;28;20280;-47
2023/09/14 14:53:00;;;;;;;5.73;1.73;;;;;;;;;;5084034;28;20034;-47
2023/09/14 14:55:25;;;;;;;4.93;2.47;;;;;;;;;;5088100;28;20020;-47
2023/09/14 14:57:52;;;;;;;5.53;2.57;;;;;;;;;;5086742;28;20266;-46
2023/09/14 15:00:17;;;;;;;8.88;5.10;;;;;;;;;;5090044;28;20106;-46
2023/09/14 15:02:42;;;;;;;7.15;1.33;;;;;;;;;;5087333;28;20111;-46
2023/09/14 15:05:08;;;;;;;4.40;1.27;;;;;;;;;;5090874;28;20114;-46
2023/09/14 15:07:34;;;;;;;4.25;1.45;;;;;;;;;;5087927;28;20779;-46
2023/09/14 15:09:59;;;;;;;2.55;1.10;;;;;;;;;;5086868;28;20040;-47
2023/09/14 15:12:24;;;;;;;3.17;1.30;;;;;;;;;;5088427;28;20011;-47
2023/09/14 15:14:49;;;;;;;3.77;1.40;;;;;;;;;;5087325;28;20031;-46
2023/09/14 15:17:15;;;;;;;3.83;1.37;;;;;;;;;;5089800;28;20515;-46
2023/09/14 15:19:41;;;;;;;6.07;1.33;;;;;;;;;;5088016;28;20274;-46
2023/09/14 15:22:07;;;;;;;2.85;1.00;;;;;;;;;;5090295;28;20331;-46
2023/09/14 15:24:33;;;;;;;5.15;1.30;;;;;;;;;;5088925;28;20401;-46
2023/09/14 15:26:58;;;;;;;4.45;1.30;;;;;;;;;;5084306;28;20025;-46
2023/09/14 15:29:23;;;;;;;5.07;1.70;;;;;;;;;;5084130;28;20024;-46
2023/09/14 15:31:48;;;;;;;5.60;1.60;;;;;;;;;;5084732;28;20110;-47
2023/09/14 15:34:14;;;;;;;6.53;2.40;;;;;;;;;;5087831;28;20092;-46
2023/09/14 15:36:39;;;;;;;6.35;2.53;;;;;;;;;;5084753;28;20265;-46
2023/09/14 15:39:05;;;;;;;3.17;1.00;;;;;;;;;;5087228;28;20062;-46
2023/09/14 15:41:30;;;;;;;4.03;1.20;;;;;;;;;;5089668;28;20049;-46
2023/09/14 15:43:55;;;;;;;3.00;0.90;;;;;;;;;;5085816;28;20024;-47
2023/09/14 15:46:21;;;;;;;3.70;1.20;;;;;;;;;;5089390;28;20031;-46
2023/09/14 15:48:46;;;;;;;2.72;1.00;;;;;;;;;;5085252;28;20034;-46
2023/09/14 15:51:12;;;;;;;5.50;1.30;;;;;;;;;;5088571;28;20506;-46
2023/09/14 15:53:37;;;;;;;3.88;1.35;;;;;;;;;;5085162;28;20024;-46
2023/09/14 15:56:03;;;;;;;2.50;1.30;;;;;;;;;;5088552;28;20031;-46
2023/09/14 15:58:28;;;;;;;4.60;1.27;;;;;;;;;;5087644;28;20024;-46
2023/09/14 16:00:57;;;;;;;5.47;1.17;;;;;;;;;;5088953;28;20058;-46
2023/09/14 16:03:23;;;;;;;3.00;1.40;;;;;;;;;;5092378;28;20262;-46
2023/09/14 16:05:52;;;;;;;3.00;1.20;;;;;;;;;;5088813;28;20665;-46
2023/09/14 16:08:17;;;;;;;5.80;2.20;;;;;;;;;;5079513;28;20127;-47
2023/09/14 16:10:43;;;;;;;4.27;1.30;;;;;;;;;;5087734;28;20101;-46
2023/09/14 16:13:11;;;;;;;4.30;1.30;;;;;;;;;;5083025;28;20038;-46
2023/09/14 16:15:37;;;;;;;3.45;1.30;;;;;;;;;;5090669;28;20020;-46
2023/09/14 16:18:02;;;;;;;2.47;1.10;;;;;;;;;;5088432;28;20036;-46
2023/09/14 16:20:28;;;;;;;5.22;1.25;;;;;;;;;;5083037;28;20016;-46
2023/09/14 16:22:53;;;;;;;3.87;1.30;;;;;;;;;;5085341;28;20031;-46
2023/09/14 16:25:18;;;;;;;4.23;1.50;;;;;;;;;;5080340;28;20040;-46
2023/09/14 16:27:43;;;;;;;3.50;1.00;;;;;;;;;;5083275;28;20694;-46
2023/09/14 16:30:09;;;;;;;3.53;1.40;;;;;;;;;;5089162;28;20020;-46
2023/09/14 16:32:34;;;;;;;3.92;2.08;;;;;;;;;;5073679;28;20548;-46
2023/09/14 16:34:59;;;;;;;4.77;2.00;;;;;;;;;;5086004;28;20217;-46
2023/09/14 16:37:25;;;;;;;2.70;0.97;;;;;;;;;;5090145;28;20813;-46
2023/09/14 16:39:50;;;;;;;2.43;1.23;;;;;;;;;;5085691;28;20027;-46
2023/09/14 16:42:15;;;;;;;6.70;2.95;;;;;;;;;;5074537;28;21467;-46
2023/09/14 16:44:41;;;;;;;7.60;2.73;;;;;;;;;;5081018;28;20103;-46
2023/09/14 16:47:06;;;;;;;3.67;1.53;;;;;;;;;;5063540;28;20297;-46
2023/09/14 16:49:32;;;;;;;4.55;1.10;;;;;;;;;;5082647;28;20278;-47
2023/09/14 16:51:58;;;;;;;4.82;1.75;;;;;;;;;;5079825;28;20028;-46
2023/09/14 16:54:28;;;;;;;4.53;2.30;;;;;;;;;;5084559;28;20020;-46
2023/09/14 16:56:54;;;;;;;4.13;2.03;;;;;;;;;;5082531;28;20051;-46
2023/09/14 16:59:21;;;;;;;3.88;1.85;;;;;;;;;;5085449;28;20049;-46
2023/09/14 17:01:46;;;;;;;3.80;1.40;;;;;;;;;;5080381;28;20118;-46
2023/09/14 17:04:12;;;;;;;2.53;1.33;;;;;;;;;;5076522;28;20107;-46
2023/09/14 17:06:37;;;;;;;3.47;1.30;;;;;;;;;;5077519;28;20358;-46
2023/09/14 17:09:06;;;;;;;2.80;1.30;;;;;;;;;;5084438;28;20432;-46
2023/09/14 17:11:32;;;;;;;5.30;1.45;;;;;;;;;;5086781;28;20561;-46
2023/09/14 17:13:57;;;;;;;3.38;1.40;;;;;;;;;;5081638;28;20020;-46
2023/09/14 17:16:22;;;;;;;4.67;1.20;;;;;;;;;;5083654;28;20479;-46
2023/09/14 17:18:50;;;;;;;16.47;6.90;;;;;;;;;;5083769;28;20031;-46
2023/09/14 17:21:15;;;;;;;5.95;1.42;;;;;;;;;;5080605;28;20123;-46
2023/09/14 17:23:41;;;;;;;5.13;1.55;;;;;;;;;;5078882;28;20755;-46
2023/09/14 17:26:06;;;;;;;2.95;1.60;;;;;;;;;;5074486;28;20036;-46
2023/09/14 17:28:32;;;;;;;5.37;1.63;;;;;;;;;;5083074;28;20028;-46
2023/09/14 17:30:58;;;;;;;2.75;1.35;;;;;;;;;;5084521;28;20278;-46
2023/09/14 17:33:23;;;;;;;3.30;1.15;;;;;;;;;;5076236;28;20027;-46
2023/09/14 17:35:50;;;;;;;4.07;1.40;;;;;;;;;;5080919;28;20020;-46
2023/09/14 17:38:15;;;;;;;5.28;1.48;;;;;;;;;;5080206;28;20335;-46
2023/09/14 17:40:40;;;;;;;4.07;2.10;;;;;;;;;;5083401;28;20509;-46
2023/09/14 17:43:06;;;;;;;3.57;1.37;;;;;;;;;;5080646;28;20392;-46
2023/09/14 17:45:33;;;;;;;4.30;1.57;;;;;;;;;;5072175;28;20429;-46
2023/09/14 17:47:58;;;;;;;4.35;1.67;;;;;;;;;;5082662;28;20047;-46
2023/09/14 17:50:25;;;;;;;5.53;1.55;;;;;;;;;;5077467;28;20024;-46